Time;durP1;ratioP1;P1;durP2;ratioP2;P2;SDS_P1;SDS_P2;PMS_P1;PMS_P2;Temp;Humidity;BMP_temperature;BMP_pressure;BME280_temperature;BME280_humidity;BME280_pressure;Samples;Min_cycle;Max_cycle;Signal;HPM_P1;HPM_P2
2021/03/22 00:01:47;;;;;;;6.63;3.08;;;;;;;10.03;67.23;102309.94;5051925;28;20057;-47
2021/03/22 00:04:34;;;;;;;6.80;2.92;;;;;;;10.09;67.32;102308.69;5066686;28;20048;-49
2021/03/22 00:07:20;;;;;;;5.18;1.80;;;;;;;10.11;66.91;102309.22;5071087;28;20127;-49
2021/03/22 00:10:07;;;;;;;6.25;2.30;;;;;;;10.05;67.27;102307.69;5071747;28;20119;-48
2021/03/22 00:12:41;;;;;;;2.92;1.73;;;;;;;10.05;67.22;102310.44;5070203;28;20056;-46
2021/03/22 00:15:26;;;;;;;3.28;1.45;;;;;;;10.03;67.15;102307.16;5072414;28;20052;-50
2021/03/22 00:17:52;;;;;;;2.47;1.60;;;;;;;10.00;67.08;102293.94;5071601;28;20405;-49
2021/03/22 00:20:20;;;;;;;4.40;1.67;;;;;;;10.00;67.05;102291.16;5072258;28;20048;-46
2021/03/22 00:22:46;;;;;;;3.75;1.70;;;;;;;10.04;66.98;102283.88;5072688;28;20072;-49
2021/03/22 00:25:14;;;;;;;3.28;1.85;;;;;;;10.10;66.64;102282.69;5071597;28;20044;-49
2021/03/22 00:27:40;;;;;;;3.72;1.77;;;;;;;10.09;66.65;102280.19;5071112;28;20087;-46
2021/03/22 00:30:09;;;;;;;1.95;1.60;;;;;;;10.00;66.78;102282.88;5072729;28;20041;-49
2021/03/22 00:32:36;;;;;;;2.63;1.70;;;;;;;10.02;66.80;102274.25;5072444;28;20094;-47
2021/03/22 00:35:03;;;;;;;2.00;1.70;;;;;;;10.05;66.56;102274.47;5072287;28;20064;-49
2021/03/22 00:37:29;;;;;;;3.45;1.83;;;;;;;10.05;66.45;102268.94;5072472;28;20041;-46
2021/03/22 00:39:55;;;;;;;3.88;2.13;;;;;;;9.99;66.37;102270.16;5071272;28;20060;-52
2021/03/22 00:42:22;;;;;;;6.32;3.22;;;;;;;10.00;66.15;102266.28;5071811;28;20053;-48
2021/03/22 00:44:48;;;;;;;4.97;3.88;;;;;;;9.91;66.30;102256.19;5072670;28;20064;-48
2021/03/22 00:47:14;;;;;;;8.65;4.93;;;;;;;9.87;66.21;102256.00;5072279;28;20509;-47
2021/03/22 00:49:41;;;;;;;9.25;5.90;;;;;;;9.85;66.30;102263.75;5070116;28;20087;-48
2021/03/22 00:52:10;;;;;;;14.75;6.97;;;;;;;9.86;65.96;102247.97;5072279;28;20078;-51
2021/03/22 00:54:41;;;;;;;11.68;6.55;;;;;;;9.88;65.87;102254.84;5072375;28;20086;-46
2021/03/22 00:57:10;;;;;;;11.55;6.32;;;;;;;9.92;65.76;102244.00;5072343;28;20076;-46
2021/03/22 00:59:36;;;;;;;9.05;5.90;;;;;;;9.99;65.80;102242.47;5071570;28;20079;-47
2021/03/22 01:02:04;;;;;;;11.27;7.72;;;;;;;9.97;65.71;102244.75;5072300;28;20127;-47
2021/03/22 01:04:31;;;;;;;12.90;8.07;;;;;;;10.00;65.88;102246.91;5072497;28;20044;-48
2021/03/22 01:06:58;;;;;;;10.45;6.68;;;;;;;10.05;65.76;102235.72;5072110;28;20426;-46
2021/03/22 01:09:24;;;;;;;10.93;6.65;;;;;;;10.07;65.73;102227.94;5071299;28;20098;-47
2021/03/22 01:11:51;;;;;;;11.90;6.68;;;;;;;10.08;65.77;102226.81;5075757;28;20055;-46
2021/03/22 01:14:18;;;;;;;9.18;6.13;;;;;;;10.08;65.92;102226.81;5075586;28;20390;-47
2021/03/22 01:16:44;;;;;;;7.30;5.18;;;;;;;10.05;66.00;102224.66;5075839;28;20076;-50
2021/03/22 01:19:18;;;;;;;10.48;6.32;;;;;;;10.05;66.18;102223.84;5076236;28;20045;-47
2021/03/22 01:21:51;;;;;;;11.88;5.38;;;;;;;10.04;66.26;102217.47;5075838;28;20106;-49
2021/03/22 01:24:37;;;;;;;8.80;6.25;;;;;;;10.08;66.21;102223.22;5075305;28;20126;-46
2021/03/22 01:27:24;;;;;;;8.48;5.22;;;;;;;10.01;66.38;102207.03;5073897;28;20102;-47
2021/03/22 01:30:21;;;;;;;8.27;5.40;;;;;;;9.97;66.62;102208.78;5074391;28;20135;-47
2021/03/22 01:33:10;;;;;;;8.07;4.43;;;;;;;9.99;66.60;102206.50;5060216;28;20040;-47
2021/03/22 01:35:59;;;;;;;6.38;3.60;;;;;;;9.99;66.77;102206.50;5075400;28;20097;-47
2021/03/22 01:38:46;;;;;;;7.35;4.05;;;;;;;9.97;66.76;102202.41;5073426;28;20041;-46
2021/03/22 01:41:55;;;;;;;6.22;3.95;;;;;;;9.91;67.02;102187.84;5074767;28;20170;-47
2021/03/22 01:44:47;;;;;;;9.88;4.95;;;;;;;9.86;67.08;102199.00;5074250;28;20053;-46
2021/03/22 01:47:35;;;;;;;6.35;4.43;;;;;;;9.79;67.31;102204.94;5074353;28;20074;-46
2021/03/22 01:50:26;;;;;;;5.50;3.45;;;;;;;9.79;67.16;102198.59;5074514;28;20072;-48
2021/03/22 01:53:13;;;;;;;6.85;3.85;;;;;;;9.84;67.11;102209.56;5074954;28;20523;-46
2021/03/22 01:56:15;;;;;;;5.03;3.38;;;;;;;9.82;66.92;102206.28;5074634;28;20055;-52
2021/03/22 01:59:02;;;;;;;11.13;5.57;;;;;;;9.84;66.87;102206.81;5074424;28;20056;-47
2021/03/22 02:01:52;;;;;;;5.57;3.47;;;;;;;9.87;66.84;102205.38;5073755;28;20057;-48
2021/03/22 02:04:38;;;;;;;4.63;3.25;;;;;;;9.86;66.77;102196.25;5073544;28;20055;-46
2021/03/22 02:07:27;;;;;;;6.60;4.25;;;;;;;9.88;66.85;102191.22;5073926;28;20185;-47
2021/03/22 02:10:13;;;;;;;5.40;4.75;;;;;;;9.92;66.73;102192.28;5074628;28;20036;-46
2021/03/22 02:13:01;;;;;;;5.78;4.18;;;;;;;9.96;66.69;102201.59;5074527;28;20468;-47
2021/03/22 02:15:49;;;;;;;5.35;3.70;;;;;;;9.98;66.47;102193.00;5073732;28;20044;-46
2021/03/22 02:19:02;;;;;;;6.80;4.80;;;;;;;9.96;66.52;102190.53;5073917;28;20445;-46
2021/03/22 02:22:29;;;;;;;5.55;4.68;;;;;;;10.00;66.39;102182.44;5072208;28;20109;-47
2021/03/22 02:25:30;;;;;;;7.15;5.15;;;;;;;10.01;66.51;102179.34;5073016;28;20102;-47
2021/03/22 02:29:04;;;;;;;6.65;4.85;;;;;;;9.97;66.47;102172.81;5071188;28;20060;-46
2021/03/22 02:32:25;;;;;;;7.30;5.32;;;;;;;9.90;66.60;102166.84;5073688;28;20044;-47
2021/03/22 02:35:18;;;;;;;7.20;4.65;;;;;;;9.92;66.46;102167.38;5074644;28;20131;-47
2021/03/22 02:38:15;;;;;;;3.67;3.28;;;;;;;9.87;66.63;102167.47;5074002;28;20052;-48
2021/03/22 02:41:11;;;;;;;4.40;3.40;;;;;;;9.79;66.85;102168.19;5072671;28;20072;-49
2021/03/22 02:44:08;;;;;;;4.70;3.13;;;;;;;9.75;66.90;102161.59;5073320;28;20116;-48
2021/03/22 02:47:03;;;;;;;3.42;2.72;;;;;;;9.64;66.76;102162.91;5073448;28;20040;-47
2021/03/22 02:49:52;;;;;;;3.45;2.90;;;;;;;9.61;66.79;102163.53;5059370;28;20040;-47
2021/03/22 02:52:51;;;;;;;3.85;2.90;;;;;;;9.62;66.92;102162.41;5072977;28;20528;-47
2021/03/22 02:56:03;;;;;;;4.47;3.53;;;;;;;9.66;66.71;102157.91;5072688;28;20053;-48
2021/03/22 02:59:14;;;;;;;3.08;2.55;;;;;;;9.67;66.65;102165.06;5072447;28;20150;-48
2021/03/22 03:02:04;;;;;;;4.88;3.05;;;;;;;9.68;66.76;102161.19;5073276;28;20082;-47
2021/03/22 03:04:51;;;;;;;3.08;2.50;;;;;;;9.65;66.71;102164.56;5059220;28;20410;-47
2021/03/22 03:07:38;;;;;;;2.17;1.98;;;;;;;9.65;66.72;102164.56;5072063;28;20463;-47
2021/03/22 03:10:25;;;;;;;3.50;3.05;;;;;;;9.68;66.72;102170.31;5073612;28;20139;-46
2021/03/22 03:13:11;;;;;;;2.92;2.13;;;;;;;9.67;66.84;102170.59;5059132;28;20048;-46
2021/03/22 03:15:59;;;;;;;4.18;2.38;;;;;;;9.62;67.03;102162.41;5073047;28;20093;-46
2021/03/22 03:18:46;;;;;;;3.28;2.28;;;;;;;9.62;67.00;102156.88;5057730;28;20083;-46
2021/03/22 03:21:33;;;;;;;3.05;2.00;;;;;;;9.63;66.93;102166.81;5072716;28;20405;-48
2021/03/22 03:24:20;;;;;;;3.20;1.50;;;;;;;9.58;66.97;102153.88;5072603;28;20041;-46
2021/03/22 03:27:08;;;;;;;1.67;1.27;;;;;;;9.54;67.00;102140.97;5071497;28;20049;-47
2021/03/22 03:29:55;;;;;;;2.33;1.20;;;;;;;9.50;67.18;102143.56;5071844;28;20174;-47
2021/03/22 03:32:42;;;;;;;1.95;0.95;;;;;;;9.48;67.00;102144.94;5072556;28;20074;-49
2021/03/22 03:35:31;;;;;;;1.65;1.13;;;;;;;9.43;67.02;102136.75;5072725;28;20041;-48
2021/03/22 03:38:18;;;;;;;3.80;1.88;;;;;;;9.43;67.04;102142.28;5073541;28;20049;-47
2021/03/22 03:41:05;;;;;;;1.10;0.82;;;;;;;9.43;67.02;102145.03;5072204;28;20126;-48
2021/03/22 03:43:51;;;;;;;1.20;0.95;;;;;;;9.39;66.82;102130.22;5072310;28;20123;-47
2021/03/22 03:46:38;;;;;;;1.13;0.98;;;;;;;9.38;66.37;102131.31;5073464;28;20391;-46
2021/03/22 03:49:25;;;;;;;1.85;1.40;;;;;;;9.33;66.18;102123.13;5072684;28;20056;-46
2021/03/22 03:52:12;;;;;;;1.00;0.90;;;;;;;9.28;66.23;102120.44;5072529;28;20517;-47
2021/03/22 03:54:58;;;;;;;1.52;1.27;;;;;;;9.29;66.23;102122.09;5071790;28;20127;-48
2021/03/22 03:57:51;;;;;;;1.10;1.00;;;;;;;9.33;65.93;102125.88;5070920;28;20040;-50
2021/03/22 04:00:42;;;;;;;1.83;0.82;;;;;;;9.33;66.16;102136.94;5052603;28;20129;-51
2021/03/22 04:03:31;;;;;;;2.70;0.85;;;;;;;9.29;66.02;102122.09;5060285;28;20045;-48
2021/03/22 04:06:24;;;;;;;2.42;0.80;;;;;;;9.25;65.99;102132.09;5072857;28;20052;-48
2021/03/22 04:09:12;;;;;;;0.73;0.70;;;;;;;9.34;66.00;102136.66;5073496;28;20047;-48
2021/03/22 04:11:59;;;;;;;0.70;0.70;;;;;;;9.37;65.99;102136.03;5073097;28;20166;-46
2021/03/22 04:14:46;;;;;;;1.13;0.80;;;;;;;9.33;65.86;102129.47;5071434;28;20129;-46
2021/03/22 04:17:32;;;;;;;1.98;0.85;;;;;;;9.29;66.04;102139.50;5072888;28;20056;-46
2021/03/22 04:20:20;;;;;;;5.85;1.48;;;;;;;9.23;66.09;102145.41;5072397;28;20127;-46
2021/03/22 04:23:07;;;;;;;1.65;1.10;;;;;;;9.18;65.92;102144.38;5057716;28;20052;-47
2021/03/22 04:25:53;;;;;;;2.63;0.75;;;;;;;9.17;65.94;102151.03;5071805;28;20045;-48
2021/03/22 04:28:41;;;;;;;2.97;0.93;;;;;;;9.19;65.77;102151.53;5072875;28;20037;-49
2021/03/22 04:31:29;;;;;;;1.55;0.80;;;;;;;9.21;66.20;102147.66;5058299;28;20508;-46
2021/03/22 04:34:16;;;;;;;3.95;1.10;;;;;;;9.17;65.90;102147.44;5072348;28;20513;-46
2021/03/22 04:37:02;;;;;;;2.42;0.98;;;;;;;9.17;66.12;102159.31;5071422;28;20040;-49
2021/03/22 04:39:49;;;;;;;1.45;1.00;;;;;;;9.23;66.21;102145.41;5071552;28;20110;-47
2021/03/22 04:42:36;;;;;;;1.55;1.17;;;;;;;9.24;66.23;102149.81;5071905;28;20383;-47
2021/03/22 04:45:25;;;;;;;1.27;1.17;;;;;;;9.19;66.34;102140.47;5052826;28;20063;-47
2021/03/22 04:48:13;;;;;;;3.78;1.20;;;;;;;9.21;66.18;102142.13;5055672;28;20059;-51
2021/03/22 04:51:00;;;;;;;1.40;1.05;;;;;;;9.17;66.32;102141.91;5056369;28;20052;-48
2021/03/22 04:53:47;;;;;;;3.45;1.10;;;;;;;9.15;66.29;102150.50;5056937;28;20513;-48
2021/03/22 04:56:38;;;;;;;2.08;1.52;;;;;;;9.17;66.12;102137.22;5054699;28;20075;-50
2021/03/22 04:59:25;;;;;;;2.05;1.48;;;;;;;9.18;66.09;102132.50;5068917;28;20037;-48
2021/03/22 05:02:11;;;;;;;1.92;1.50;;;;;;;9.17;65.71;102123.41;5075329;28;20147;-50
2021/03/22 05:05:17;;;;;;;3.63;2.05;;;;;;;9.17;65.97;102123.41;5056546;28;20064;-48
2021/03/22 05:08:06;;;;;;;4.30;2.58;;;;;;;9.11;65.96;102118.25;5055641;28;20049;-51
2021/03/22 05:10:55;;;;;;;4.07;2.13;;;;;;;9.08;65.91;102116.91;5053766;28;20136;-48
2021/03/22 05:13:41;;;;;;;2.75;2.40;;;;;;;9.10;65.89;102120.22;5059135;28;20134;-46
2021/03/22 05:16:28;;;;;;;2.97;2.58;;;;;;;9.13;65.81;102116.03;5073695;28;20388;-47
2021/03/22 05:19:35;;;;;;;4.85;3.17;;;;;;;9.10;65.82;102120.22;5075199;28;20490;-49
2021/03/22 05:22:22;;;;;;;4.57;2.60;;;;;;;9.09;65.93;102121.31;5060385;28;20131;-49
2021/03/22 05:25:09;;;;;;;4.80;3.03;;;;;;;9.06;65.70;102113.63;5074939;28;20048;-47
2021/03/22 05:27:56;;;;;;;3.50;3.08;;;;;;;9.06;65.74;102112.81;5075392;28;20059;-46
2021/03/22 05:30:42;;;;;;;4.22;3.17;;;;;;;9.06;65.66;102110.88;5073939;28;20119;-49
2021/03/22 05:33:29;;;;;;;4.50;2.90;;;;;;;9.07;65.82;102103.41;5061803;28;20113;-50
2021/03/22 05:36:18;;;;;;;3.60;2.80;;;;;;;9.06;65.77;102107.28;5075465;28;20049;-48
2021/03/22 05:39:05;;;;;;;4.40;2.95;;;;;;;9.01;65.85;102099.91;5075088;28;20406;-48
2021/03/22 05:41:55;;;;;;;4.97;3.03;;;;;;;9.01;65.95;102099.06;5075537;28;20045;-48
2021/03/22 05:45:01;;;;;;;6.57;3.17;;;;;;;9.00;65.97;102101.00;5075027;28;20135;-47
2021/03/22 05:48:20;;;;;;;3.88;2.58;;;;;;;8.99;66.07;102099.41;5075115;28;20431;-48
2021/03/22 05:51:28;;;;;;;5.70;3.05;;;;;;;8.99;66.00;102102.16;5044741;28;20639;-48
2021/03/22 05:54:52;;;;;;;4.88;3.00;;;;;;;8.98;66.12;102092.22;5074548;28;20043;-50
2021/03/22 05:57:45;;;;;;;5.55;2.85;;;;;;;9.01;66.09;102088.84;5073876;28;20527;-47
2021/03/22 06:00:37;;;;;;;;;;;;;;;9.00;66.11;102089.16;5076087;28;20053;-49
2021/03/22 06:03:37;;;;;;;5.00;2.72;;;;;;;9.04;66.04;102096.53;5076036;28;20277;-46
2021/03/22 06:06:33;;;;;;;4.57;3.28;;;;;;;9.06;65.98;102088.75;5073394;28;20044;-48
2021/03/22 06:09:30;;;;;;;7.10;4.03;;;;;;;9.05;66.01;102092.63;5073224;28;20445;-48
2021/03/22 06:12:40;;;;;;;5.40;3.08;;;;;;;9.04;66.20;102095.72;5073043;28;20448;-47
2021/03/22 06:15:50;;;;;;;5.70;3.58;;;;;;;9.02;66.28;102095.22;5052442;28;20128;-48
2021/03/22 06:18:43;;;;;;;4.13;3.20;;;;;;;9.01;66.24;102093.56;5052767;28;20413;-51
2021/03/22 06:21:32;;;;;;;;;;;;;;;9.00;66.66;102103.78;5054532;28;20128;-48
2021/03/22 06:24:22;;;;;;;4.80;3.30;;;;;;;9.01;66.24;102099.91;5054603;28;19932;-46
2021/03/22 06:27:09;;;;;;;7.38;3.78;;;;;;;9.04;66.26;102109.53;5053890;28;20127;-49
2021/03/22 06:29:56;;;;;;;5.18;3.28;;;;;;;9.04;66.40;102099.31;5055709;28;20106;-47
2021/03/22 06:32:48;;;;;;;4.20;3.00;;;;;;;9.05;66.49;102105.66;5073830;28;20053;-47
2021/03/22 06:35:36;;;;;;;4.30;3.20;;;;;;;9.06;66.38;102096.22;5072726;28;20397;-47
2021/03/22 06:38:23;;;;;;;5.22;3.45;;;;;;;9.05;66.44;102102.91;5074677;28;20052;-49
2021/03/22 06:41:28;;;;;;;5.30;3.05;;;;;;;9.03;66.75;102102.34;5072544;28;20556;-51
2021/03/22 06:44:31;;;;;;;8.52;4.07;;;;;;;9.06;66.57;102102.56;5074420;28;20413;-48
2021/03/22 06:47:22;;;;;;;4.88;3.40;;;;;;;9.06;66.57;102097.06;5073262;28;20408;-46
2021/03/22 06:50:27;;;;;;;5.68;3.50;;;;;;;9.09;66.67;102095.63;5072585;28;20063;-48
2021/03/22 06:53:32;;;;;;;4.72;3.47;;;;;;;9.11;66.61;102099.72;5059182;28;20474;-49
2021/03/22 06:56:29;;;;;;;5.93;3.85;;;;;;;9.13;66.66;102100.25;5053420;28;20326;-48
2021/03/22 06:59:19;;;;;;;5.38;3.15;;;;;;;9.15;66.61;102098.00;5063892;28;20086;-47
2021/03/22 07:02:43;;;;;;;5.22;3.83;;;;;;;9.11;66.73;102099.72;5072159;28;20178;-47
2021/03/22 07:05:33;;;;;;;4.90;3.15;;;;;;;9.14;66.61;102104.66;5058450;28;20071;-47
2021/03/22 07:08:38;;;;;;;5.97;4.75;;;;;;;9.13;66.76;102094.72;5073431;28;20390;-48
2021/03/22 07:11:25;;;;;;;6.82;4.50;;;;;;;9.18;66.67;102099.34;5071871;28;20090;-47
2021/03/22 07:14:26;;;;;;;6.65;4.25;;;;;;;9.19;66.76;102104.56;5072006;28;20049;-47
2021/03/22 07:17:22;;;;;;;7.47;5.07;;;;;;;9.23;66.48;102106.72;5071001;28;20087;-47
2021/03/22 07:20:18;;;;;;;4.57;3.33;;;;;;;9.17;66.64;102112.34;5071621;28;20041;-48
2021/03/22 07:23:10;;;;;;;6.47;3.47;;;;;;;9.22;66.64;102105.06;5072146;28;20119;-49
2021/03/22 07:26:21;;;;;;;7.50;4.30;;;;;;;9.29;66.49;102105.53;5071973;28;20433;-48
2021/03/22 07:29:26;;;;;;;4.82;3.38;;;;;;;9.31;66.50;102111.56;5057450;28;20209;-48
2021/03/22 07:32:31;;;;;;;4.68;3.33;;;;;;;9.34;66.37;102109.00;5073577;28;20048;-49
2021/03/22 07:35:39;;;;;;;4.85;3.80;;;;;;;9.35;66.34;102104.28;5072765;28;20052;-48
2021/03/22 07:38:44;;;;;;;5.47;4.32;;;;;;;9.37;66.30;102096.53;5073329;28;20525;-48
2021/03/22 07:41:40;;;;;;;4.65;3.75;;;;;;;9.38;66.28;102101.75;5072629;28;20412;-47
2021/03/22 07:44:44;;;;;;;4.82;3.83;;;;;;;9.43;66.27;102107.19;5073026;28;20047;-47
2021/03/22 07:48:02;;;;;;;7.28;4.03;;;;;;;9.41;66.35;102108.59;5072934;28;20044;-47
2021/03/22 07:51:02;;;;;;;7.32;3.65;;;;;;;9.41;66.00;102103.91;5072098;28;20424;-48
2021/03/22 07:53:57;;;;;;;8.52;4.38;;;;;;;9.38;66.19;102110.03;5072558;28;20173;-46
2021/03/22 07:57:02;;;;;;;5.68;3.78;;;;;;;9.34;65.95;102108.19;5071203;28;20493;-48
2021/03/22 08:00:06;;;;;;;4.60;3.63;;;;;;;9.35;65.89;102094.06;5071753;28;20129;-49
2021/03/22 08:03:13;;;;;;;5.47;3.58;;;;;;;9.36;65.80;102097.66;5071750;28;20353;-46
2021/03/22 08:06:13;;;;;;;4.28;3.60;;;;;;;9.38;65.88;102107.28;5065908;28;20048;-47
2021/03/22 08:09:18;;;;;;;8.02;4.60;;;;;;;9.38;65.80;102101.75;5085216;28;20138;-47
2021/03/22 08:12:23;;;;;;;10.93;6.03;;;;;;;9.43;65.76;102089.75;5077225;28;20130;-47
2021/03/22 08:15:31;;;;;;;7.13;4.93;;;;;;;9.44;65.56;102086.72;5071213;28;20056;-47
2021/03/22 08:18:35;;;;;;;5.05;3.70;;;;;;;9.49;65.43;102091.31;5070798;28;20066;-47
2021/03/22 08:21:38;;;;;;;8.05;3.78;;;;;;;9.51;65.64;102083.53;5073782;28;20521;-48
2021/03/22 08:24:50;;;;;;;9.15;4.30;;;;;;;9.51;65.47;102081.59;5075655;28;20044;-49
2021/03/22 08:27:43;;;;;;;4.85;3.55;;;;;;;9.56;65.81;102088.97;5050971;28;20041;-46
2021/03/22 08:34:49;;;;;;;5.00;4.38;;;;;;;9.65;65.28;102087.13;4107599;22;20078;-49
2021/03/22 08:37:21;;;;;;;5.88;4.22;;;;;;;9.68;65.56;102079.06;5062455;28;20135;-48
2021/03/22 08:40:11;;;;;;;7.72;4.57;;;;;;;9.72;65.15;102082.00;5053079;28;20448;-54
2021/03/22 08:42:43;;;;;;;5.30;4.72;;;;;;;9.75;65.47;102082.22;5046799;28;20103;-48
2021/03/22 08:45:18;;;;;;;5.00;4.45;;;;;;;9.79;65.26;102082.44;5046631;28;20037;-50
2021/03/22 08:48:26;;;;;;;6.15;3.83;;;;;;;9.84;65.44;102079.56;5029369;28;20073;-50
2021/03/22 08:50:53;;;;;;;6.22;4.70;;;;;;;9.88;65.37;102076.97;4932928;29;20126;-52
2021/03/22 08:53:24;;;;;;;9.35;5.28;;;;;;;9.91;65.43;102073.59;5027811;28;20106;-50
2021/03/22 08:56:01;;;;;;;8.60;4.50;;;;;;;9.93;65.26;102083.22;5052104;28;20033;-48
2021/03/22 08:58:33;;;;;;;7.68;4.97;;;;;;;9.94;65.16;102082.13;5052027;28;20048;-50
2021/03/22 09:01:08;;;;;;;;;;;;;;;9.98;65.19;102085.88;5051282;28;20053;-52
2021/03/22 09:03:40;;;;;;;5.60;3.95;;;;;;;10.00;65.12;102082.84;5041766;28;19924;-49
2021/03/22 09:06:25;;;;;;;5.97;4.15;;;;;;;9.97;64.92;102075.97;5053176;28;20115;-49
2021/03/22 09:08:54;;;;;;;6.03;4.25;;;;;;;9.99;65.30;102086.72;5043933;28;20049;-53
2021/03/22 09:11:31;;;;;;;7.50;3.60;;;;;;;9.99;65.18;102078.41;5033043;28;20041;-52
2021/03/22 09:14:02;;;;;;;7.57;3.78;;;;;;;9.98;65.31;102085.88;5043377;28;20056;-55
2021/03/22 09:16:51;;;;;;;6.97;4.95;;;;;;;9.96;65.06;102076.25;5044840;28;20037;-50
2021/03/22 09:19:20;;;;;;;5.72;4.13;;;;;;;9.94;65.38;102084.88;5051498;28;20044;-48
2021/03/22 09:22:11;;;;;;;6.32;4.88;;;;;;;10.00;65.37;102082.84;5052250;28;20434;-48
2021/03/22 09:24:38;;;;;;;6.63;4.57;;;;;;;10.02;65.55;102078.63;4993947;28;20057;-48
2021/03/22 09:27:14;;;;;;;8.65;4.72;;;;;;;10.05;65.43;102083.56;5033287;28;20112;-49
2021/03/22 09:29:47;;;;;;;7.55;5.10;;;;;;;10.09;65.53;102081.78;5062164;28;20044;-51
2021/03/22 09:35:12;;;;;;;5.85;4.47;;;;;;;10.10;65.69;102091.75;5057447;28;20045;-48
2021/03/22 09:37:39;;;;;;;7.13;4.88;;;;;;;10.10;65.78;102083.44;5045698;28;20115;-52
2021/03/22 09:40:27;;;;;;;11.07;5.60;;;;;;;10.08;65.86;102091.25;5046330;28;20041;-51
2021/03/22 09:43:05;;;;;;;7.70;5.13;;;;;;;10.06;65.94;102098.22;5016110;28;20132;-50
2021/03/22 09:45:50;;;;;;;6.63;4.68;;;;;;;10.04;66.14;102090.19;5041008;28;20183;-49
2021/03/22 09:48:16;;;;;;;7.68;4.50;;;;;;;10.09;66.04;102092.03;5034492;28;20490;-51
2021/03/22 09:50:51;;;;;;;6.90;4.72;;;;;;;10.12;66.13;102083.13;5051708;28;20048;-50
2021/03/22 09:53:21;;;;;;;8.15;4.97;;;;;;;10.11;66.34;102085.06;5051019;28;20060;-54
2021/03/22 09:55:50;;;;;;;7.70;4.30;;;;;;;10.10;66.33;102094.50;5038191;28;20107;-49
2021/03/22 09:58:38;;;;;;;5.63;4.15;;;;;;;10.07;66.33;102100.66;5051753;28;20053;-49
2021/03/22 10:01:35;;;;;;;5.88;4.65;;;;;;;10.01;66.41;102096.34;5050750;28;20490;-50
2021/03/22 10:04:13;;;;;;;8.00;4.88;;;;;;;9.91;66.75;102093.78;5049997;28;20053;-49
2021/03/22 10:07:04;;;;;;;5.65;3.65;;;;;;;9.92;66.65;102092.69;5051112;28;20071;-52
2021/03/22 10:09:43;;;;;;;6.25;4.28;;;;;;;9.97;66.94;102095.34;5070814;28;20434;-50
2021/03/22 10:12:36;;;;;;;7.35;4.22;;;;;;;10.05;66.77;102094.63;5051476;28;20049;-53
2021/03/22 10:15:13;;;;;;;6.72;4.43;;;;;;;10.07;66.80;102095.13;5045674;28;20045;-51
2021/03/22 10:18:09;;;;;;;5.13;3.53;;;;;;;10.02;67.17;102098.00;5041274;28;20091;-49
2021/03/22 10:20:45;;;;;;;6.65;3.92;;;;;;;10.08;67.01;102088.47;5050394;28;20750;-48
2021/03/22 10:23:33;;;;;;;8.10;4.43;;;;;;;10.15;66.98;102090.84;5051118;28;20458;-51
2021/03/22 10:26:11;;;;;;;8.80;4.75;;;;;;;10.24;66.92;102089.81;5030401;28;20466;-48
2021/03/22 10:28:41;;;;;;;8.38;4.40;;;;;;;10.28;66.70;102095.53;5042743;28;20037;-47
2021/03/22 10:31:24;;;;;;;6.95;4.40;;;;;;;10.23;66.78;102088.16;5051157;28;20111;-51
2021/03/22 10:33:57;;;;;;;;;;;;;;;10.18;67.22;102101.28;5050165;28;20099;-47
2021/03/22 10:36:29;;;;;;;10.60;3.92;;;;;;;10.21;67.06;102097.91;5064035;28;19921;-51
2021/03/22 10:38:57;;;;;;;5.00;3.58;;;;;;;10.26;67.00;102098.63;5070002;28;20052;-53
2021/03/22 10:41:36;;;;;;;5.53;3.78;;;;;;;10.26;66.96;102104.16;5069383;28;20094;-49
2021/03/22 10:44:07;;;;;;;7.97;4.55;;;;;;;10.25;66.94;102105.28;5068537;28;20036;-48
2021/03/22 10:46:33;;;;;;;9.65;4.60;;;;;;;10.26;67.00;102093.09;5070599;28;20044;-49
2021/03/22 10:49:04;;;;;;;7.22;4.30;;;;;;;10.29;66.92;102103.53;5067740;28;20119;-53
2021/03/22 10:51:52;;;;;;;7.78;4.68;;;;;;;10.29;66.83;102095.22;5058799;28;20087;-48
2021/03/22 10:54:21;;;;;;;9.05;5.38;;;;;;;10.29;66.87;102098.00;5069187;28;20047;-49
2021/03/22 10:56:55;;;;;;;11.00;5.00;;;;;;;10.29;66.79;102097.19;5062242;28;20044;-49
2021/03/22 10:59:29;;;;;;;4.97;4.45;;;;;;;10.23;66.88;102088.16;5050871;28;20040;-49
2021/03/22 11:02:01;;;;;;;7.72;4.65;;;;;;;10.30;66.85;102093.25;5062204;28;20135;-50
2021/03/22 11:04:32;;;;;;;5.80;3.78;;;;;;;10.27;66.92;102099.44;5069015;28;20498;-51
2021/03/22 11:07:11;;;;;;;8.23;3.72;;;;;;;10.20;66.97;102099.03;5070835;28;20036;-49
2021/03/22 11:09:37;;;;;;;6.88;4.57;;;;;;;10.22;67.05;102097.59;5069083;28;20551;-49
2021/03/22 11:12:06;;;;;;;7.15;3.53;;;;;;;10.27;66.90;102089.16;5070740;28;20090;-53
2021/03/22 11:14:34;;;;;;;8.00;4.88;;;;;;;10.29;66.77;102086.94;5052155;28;20647;-51
2021/03/22 11:17:17;;;;;;;4.38;3.85;;;;;;;10.34;66.85;102088.75;5049903;28;20051;-48
2021/03/22 11:19:46;;;;;;;5.07;3.05;;;;;;;10.36;66.82;102086.50;5061205;28;20052;-47
2021/03/22 11:22:27;;;;;;;5.00;3.58;;;;;;;10.35;66.34;102093.97;5067915;28;20123;-49
2021/03/22 11:24:54;;;;;;;4.97;3.47;;;;;;;10.29;66.69;102092.47;5069324;28;20044;-47
2021/03/22 11:27:25;;;;;;;5.30;3.03;;;;;;;10.25;66.73;102091.44;5069392;28;20540;-51
2021/03/22 11:30:03;;;;;;;4.25;3.30;;;;;;;10.27;66.43;102091.13;5069849;28;20071;-54
2021/03/22 11:32:32;;;;;;;4.25;2.58;;;;;;;10.26;66.59;102092.25;5058475;28;20057;-50
2021/03/22 11:35:13;;;;;;;7.47;3.40;;;;;;;10.26;66.33;102095.84;5065200;28;20044;-52
2021/03/22 11:37:51;;;;;;;4.30;2.97;;;;;;;10.23;66.52;102093.69;5068007;28;20095;-55
2021/03/22 11:40:21;;;;;;;3.47;2.88;;;;;;;10.21;66.24;102092.38;5068909;28;20095;-49
2021/03/22 11:42:51;;;;;;;4.10;3.22;;;;;;;10.19;66.32;102087.13;5060710;28;20048;-50
2021/03/22 11:45:41;;;;;;;5.18;3.40;;;;;;;10.19;66.45;102081.59;5068803;28;20036;-53
2021/03/22 11:48:20;;;;;;;4.38;3.13;;;;;;;10.25;66.38;102085.91;5077563;28;20451;-52
2021/03/22 11:51:11;;;;;;;14.82;5.85;;;;;;;10.26;66.39;102087.53;5069301;28;20064;-49
2021/03/22 11:53:56;;;;;;;4.63;3.40;;;;;;;10.22;66.45;102091.22;5068675;28;20515;-49
2021/03/22 11:56:29;;;;;;;5.85;3.40;;;;;;;10.27;66.19;102088.38;5069867;28;20040;-49
2021/03/22 11:59:07;;;;;;;;;;;;;;;10.28;66.21;102078.91;5069479;28;20048;-50
2021/03/22 12:01:34;;;;;;;6.20;3.10;;;;;;;10.25;66.16;102083.13;5049352;28;20381;-49
2021/03/22 12:04:05;;;;;;;3.90;3.20;;;;;;;10.24;66.09;102078.75;5056504;28;20041;-49
2021/03/22 12:06:34;;;;;;;10.00;3.58;;;;;;;10.27;66.19;102078.09;5069187;28;20058;-49
2021/03/22 12:09:11;;;;;;;8.90;3.05;;;;;;;10.32;66.13;102078.00;5068693;28;20044;-51
2021/03/22 12:11:37;;;;;;;4.72;3.13;;;;;;;10.35;66.03;102077.34;5069582;28;20048;-52
2021/03/22 12:14:04;;;;;;;6.03;3.20;;;;;;;10.36;66.12;102067.94;5069364;28;20059;-50
2021/03/22 12:16:35;;;;;;;6.32;3.17;;;;;;;10.36;66.04;102067.94;5068230;28;20129;-49
2021/03/22 12:19:09;;;;;;;6.18;3.15;;;;;;;10.36;65.91;102064.34;5069169;28;20045;-49
2021/03/22 12:21:36;;;;;;;5.72;3.20;;;;;;;10.39;66.09;102060.97;5067120;28;20091;-50
2021/03/22 12:24:04;;;;;;;4.95;2.80;;;;;;;10.40;66.05;102059.84;5069130;28;20056;-49
2021/03/22 12:26:32;;;;;;;5.05;3.35;;;;;;;10.40;65.97;102059.84;5069459;28;20045;-50
2021/03/22 12:29:00;;;;;;;3.60;2.75;;;;;;;10.39;65.93;102058.19;5060485;28;20152;-48
2021/03/22 12:31:33;;;;;;;3.97;3.22;;;;;;;10.42;66.00;102051.19;5068761;28;20094;-51
2021/03/22 12:34:04;;;;;;;4.30;3.13;;;;;;;10.42;66.11;102048.44;5065215;28;20036;-50
2021/03/22 12:36:32;;;;;;;6.10;3.35;;;;;;;10.41;66.28;102047.63;5066553;28;20561;-52
2021/03/22 12:38:58;;;;;;;5.20;3.55;;;;;;;10.40;66.16;102044.03;5069039;28;20068;-52
2021/03/22 12:41:29;;;;;;;4.40;3.20;;;;;;;10.37;66.19;102033.59;5061670;28;20052;-48
2021/03/22 12:44:00;;;;;;;6.35;3.33;;;;;;;10.39;66.20;102034.09;5048883;28;20045;-52
2021/03/22 12:46:27;;;;;;;4.85;2.90;;;;;;;10.43;66.19;102030.72;5055098;28;20551;-48
2021/03/22 12:48:56;;;;;;;3.58;2.83;;;;;;;10.44;66.22;102029.56;5052035;28;20045;-52
2021/03/22 12:51:23;;;;;;;8.02;3.45;;;;;;;10.44;66.21;102029.56;5068968;28;20076;-48
2021/03/22 12:53:49;;;;;;;5.78;2.83;;;;;;;10.46;66.17;102013.47;5067862;28;20123;-48
2021/03/22 12:56:27;;;;;;;4.35;2.80;;;;;;;10.46;66.29;102019.81;5068139;28;20118;-48
2021/03/22 12:59:01;;;;;;;4.47;3.03;;;;;;;10.42;66.29;102029.06;5069774;28;20450;-48
2021/03/22 13:01:27;;;;;;;7.18;3.78;;;;;;;10.37;66.37;102016.16;5067773;28;20064;-50